sensor_id;sensor_type;location;lat;lon;timestamp;pressure;altitude;pressure_sealevel;temperature;humidity
78299;BME280;67556;55.656;12.590;2023-05-10T00:02:11;101422.72;;;11.04;55.64
78299;BME280;67556;55.656;12.590;2023-05-10T00:04:38;101422.38;;;10.96;56.40
78299;BME280;67556;55.656;12.590;2023-05-10T00:07:11;101419.72;;;10.96;56.19
78299;BME280;67556;55.656;12.590;2023-05-10T00:09:38;101416.22;;;10.97;55.65
78299;BME280;67556;55.656;12.590;2023-05-10T00:12:05;101408.16;;;10.96;55.77
78299;BME280;67556;55.656;12.590;2023-05-10T00:14:35;101408.25;;;10.99;55.58
78299;BME280;67556;55.656;12.590;2023-05-10T00:17:02;101396.66;;;10.97;55.88
78299;BME280;67556;55.656;12.590;2023-05-10T00:19:29;101398.31;;;10.95;55.95
78299;BME280;67556;55.656;12.590;2023-05-10T00:21:56;101406.31;;;10.95;55.97
78299;BME280;67556;55.656;12.590;2023-05-10T00:24:25;101398.31;;;10.95;55.79
78299;BME280;67556;55.656;12.590;2023-05-10T00:26:53;101402.41;;;10.87;56.00
78299;BME280;67556;55.656;12.590;2023-05-10T00:29:19;101393.44;;;10.85;55.81
78299;BME280;67556;55.656;12.590;2023-05-10T00:31:59;101392.41;;;10.81;55.28
78299;BME280;67556;55.656;12.590;2023-05-10T00:34:31;101389.78;;;10.83;55.36
78299;BME280;67556;55.656;12.590;2023-05-10T00:37:07;101388.47;;;10.73;55.56
78299;BME280;67556;55.656;12.590;2023-05-10T00:39:37;101376.78;;;10.69;55.63
78299;BME280;67556;55.656;12.590;2023-05-10T00:42:03;101385.91;;;10.74;55.33
78299;BME280;67556;55.656;12.590;2023-05-10T00:44:30;101385.75;;;10.71;55.16
78299;BME280;67556;55.656;12.590;2023-05-10T00:47:02;101367.38;;;10.78;55.90
78299;BME280;67556;55.656;12.590;2023-05-10T00:49:29;101375.25;;;10.74;55.55
78299;BME280;67556;55.656;12.590;2023-05-10T00:52:12;101376.88;;;10.71;56.14
78299;BME280;67556;55.656;12.590;2023-05-10T00:54:46;101370.47;;;10.67;55.69
78299;BME280;67556;55.656;12.590;2023-05-10T00:57:14;101369.50;;;10.65;56.44
78299;BME280;67556;55.656;12.590;2023-05-10T00:59:47;101368.38;;;10.60;56.52
78299;BME280;67556;55.656;12.590;2023-05-10T01:02:20;101367.47;;;10.60;56.42
78299;BME280;67556;55.656;12.590;2023-05-10T01:04:57;101376.44;;;10.62;56.76
78299;BME280;67556;55.656;12.590;2023-05-10T01:07:24;101362.81;;;10.54;57.30
78299;BME280;67556;55.656;12.590;2023-05-10T01:09:53;101362.81;;;10.54;57.10
78299;BME280;67556;55.656;12.590;2023-05-10T01:12:26;101361.09;;;10.56;56.77
78299;BME280;67556;55.656;12.590;2023-05-10T01:14:53;101373.56;;;10.57;57.24
78299;BME280;67556;55.656;12.590;2023-05-10T01:17:20;101366.53;;;10.58;56.96
78299;BME280;67556;55.656;12.590;2023-05-10T01:19:48;101360.19;;;10.56;57.21
78299;BME280;67556;55.656;12.590;2023-05-10T01:22:39;101363.00;;;10.59;56.43
78299;BME280;67556;55.656;12.590;2023-05-10T01:25:23;101359.34;;;10.57;56.62
78299;BME280;67556;55.656;12.590;2023-05-10T01:28:08;101352.97;;;10.53;56.72
78299;BME280;67556;55.656;12.590;2023-05-10T01:30:55;101355.63;;;10.53;57.15
78299;BME280;67556;55.656;12.590;2023-05-10T01:33:35;101349.50;;;10.54;56.21
78299;BME280;67556;55.656;12.590;2023-05-10T01:36:15;101354.81;;;10.54;56.30
78299;BME280;67556;55.656;12.590;2023-05-10T01:38:53;101347.59;;;10.52;56.49
78299;BME280;67556;55.656;12.590;2023-05-10T01:41:28;101343.13;;;10.51;56.42
78299;BME280;67556;55.656;12.590;2023-05-10T01:44:04;101349.19;;;10.48;56.78
78299;BME280;67556;55.656;12.590;2023-05-10T01:46:35;101351.09;;;10.51;56.38
78299;BME280;67556;55.656;12.590;2023-05-10T01:49:08;101343.03;;;10.49;56.19
78299;BME280;67556;55.656;12.590;2023-05-10T01:51:38;101343.03;;;10.49;56.39
78299;BME280;67556;55.656;12.590;2023-05-10T01:54:06;101349.19;;;10.48;56.50
78299;BME280;67556;55.656;12.590;2023-05-10T01:56:36;101338.53;;;10.48;56.23
78299;BME280;67556;55.656;12.590;2023-05-10T01:59:07;101333.22;;;10.48;56.26
78299;BME280;67556;55.656;12.590;2023-05-10T02:01:37;101336.59;;;10.44;56.29
78299;BME280;67556;55.656;12.590;2023-05-10T02:04:07;101332.13;;;10.43;55.98
78299;BME280;67556;55.656;12.590;2023-05-10T02:06:38;101340.09;;;10.43;56.21
78299;BME280;67556;55.656;12.590;2023-05-10T02:09:14;101330.31;;;10.42;56.20
78299;BME280;67556;55.656;12.590;2023-05-10T02:11:41;101335.47;;;10.39;56.00
78299;BME280;67556;55.656;12.590;2023-05-10T02:14:11;101326.53;;;10.37;55.96
78299;BME280;67556;55.656;12.590;2023-05-10T02:16:39;101326.28;;;10.32;55.72
78299;BME280;67556;55.656;12.590;2023-05-10T02:19:08;101325.53;;;10.35;56.53
78299;BME280;67556;55.656;12.590;2023-05-10T02:21:37;101330.72;;;10.32;55.86
78299;BME280;67556;55.656;12.590;2023-05-10T02:24:12;101324.94;;;10.22;56.38
78299;BME280;67556;55.656;12.590;2023-05-10T02:26:41;101323.38;;;10.26;56.47
78299;BME280;67556;55.656;12.590;2023-05-10T02:29:09;101318.78;;;10.23;56.89
78299;BME280;67556;55.656;12.590;2023-05-10T02:31:38;101324.94;;;10.22;56.64
78299;BME280;67556;55.656;12.590;2023-05-10T02:34:10;101321.44;;;10.23;56.80
78299;BME280;67556;55.656;12.590;2023-05-10T02:36:38;101319.47;;;10.19;56.85
78299;BME280;67556;55.656;12.590;2023-05-10T02:39:06;101317.66;;;10.18;56.47
78299;BME280;67556;55.656;12.590;2023-05-10T02:41:43;101326.34;;;10.14;56.81
78299;BME280;67556;55.656;12.590;2023-05-10T02:44:14;101321.19;;;10.17;56.24
78299;BME280;67556;55.656;12.590;2023-05-10T02:46:55;101325.31;;;10.11;57.27
78299;BME280;67556;55.656;12.590;2023-05-10T02:49:25;101321.69;;;10.09;56.66
78299;BME280;67556;55.656;12.590;2023-05-10T02:52:01;101320.84;;;10.10;57.49
78299;BME280;67556;55.656;12.590;2023-05-10T02:54:39;101316.28;;;10.07;57.02
78299;BME280;67556;55.656;12.590;2023-05-10T02:57:11;101313.50;;;10.04;56.69
78299;BME280;67556;55.656;12.590;2023-05-10T02:59:40;101316.28;;;10.07;57.23
78299;BME280;67556;55.656;12.590;2023-05-10T03:02:13;101323.22;;;10.04;57.23
78299;BME280;67556;55.656;12.590;2023-05-10T03:04:41;101319.41;;;9.98;57.90
78299;BME280;67556;55.656;12.590;2023-05-10T03:07:08;101322.16;;;10.00;57.36
78299;BME280;67556;55.656;12.590;2023-05-10T03:09:50;101321.06;;;9.95;58.00
78299;BME280;67556;55.656;12.590;2023-05-10T03:12:25;101313.06;;;9.95;57.46
78299;BME280;67556;55.656;12.590;2023-05-10T03:14:57;101303.13;;;9.91;57.41
78299;BME280;67556;55.656;12.590;2023-05-10T03:17:30;101315.53;;;9.90;58.05
78299;BME280;67556;55.656;12.590;2023-05-10T03:20:03;101319.31;;;9.95;57.28
78299;BME280;67556;55.656;12.590;2023-05-10T03:22:36;101314.88;;;9.96;58.12
78299;BME280;67556;55.656;12.590;2023-05-10T03:25:06;101308.44;;;9.91;56.98
78299;BME280;67556;55.656;12.590;2023-05-10T03:27:35;101318.25;;;9.92;57.67
78299;BME280;67556;55.656;12.590;2023-05-10T03:30:03;101320.22;;;9.96;57.31
78299;BME280;67556;55.656;12.590;2023-05-10T03:32:48;101322.03;;;9.97;57.32
78299;BME280;67556;55.656;12.590;2023-05-10T03:35:32;101320.41;;;10.00;56.96
78299;BME280;67556;55.656;12.590;2023-05-10T03:38:04;101320.22;;;9.96;57.98
78299;BME280;67556;55.656;12.590;2023-05-10T03:40:37;101315.78;;;9.96;57.92
78299;BME280;67556;55.656;12.590;2023-05-10T03:43:03;101325.53;;;9.96;57.60
78299;BME280;67556;55.656;12.590;2023-05-10T03:45:32;101309.56;;;9.96;57.90
78299;BME280;67556;55.656;12.590;2023-05-10T03:48:00;101312.44;;;10.00;58.18
78299;BME280;67556;55.656;12.590;2023-05-10T03:50:29;101318.72;;;10.03;57.36
78299;BME280;67556;55.656;12.590;2023-05-10T03:53:10;101311.88;;;10.08;57.45
78299;BME280;67556;55.656;12.590;2023-05-10T03:55:57;101313.75;;;10.10;57.88
78299;BME280;67556;55.656;12.590;2023-05-10T03:58:31;101310.28;;;10.11;57.95
78299;BME280;67556;55.656;12.590;2023-05-10T04:01:09;101306.75;;;10.12;57.39
78299;BME280;67556;55.656;12.590;2023-05-10T04:03:37;101306.06;;;10.16;56.88
78299;BME280;67556;55.656;12.590;2023-05-10T04:06:07;101306.16;;;10.19;57.49
78299;BME280;67556;55.656;12.590;2023-05-10T04:08:38;101305.34;;;10.20;57.50
78299;BME280;67556;55.656;12.590;2023-05-10T04:11:08;101305.47;;;10.23;56.54
78299;BME280;67556;55.656;12.590;2023-05-10T04:13:38;101298.19;;;10.19;56.66
78299;BME280;67556;55.656;12.590;2023-05-10T04:16:07;101306.88;;;10.15;57.46
78299;BME280;67556;55.656;12.590;2023-05-10T04:18:33;101302.59;;;10.19;57.43
78299;BME280;67556;55.656;12.590;2023-05-10T04:21:01;101304.50;;;10.21;57.90
78299;BME280;67556;55.656;12.590;2023-05-10T04:23:27;101306.31;;;10.22;57.53
78299;BME280;67556;55.656;12.590;2023-05-10T04:26:15;101309.88;;;10.23;57.67
78299;BME280;67556;55.656;12.590;2023-05-10T04:29:00;101300.16;;;10.23;57.98
78299;BME280;67556;55.656;12.590;2023-05-10T04:31:35;101301.00;;;10.22;58.57
78299;BME280;67556;55.656;12.590;2023-05-10T04:34:11;101299.25;;;10.23;58.12
78299;BME280;67556;55.656;12.590;2023-05-10T04:36:38;101303.84;;;10.26;58.23
78299;BME280;67556;55.656;12.590;2023-05-10T04:39:04;101306.56;;;10.27;58.39
78299;BME280;67556;55.656;12.590;2023-05-10T04:41:51;101304.88;;;10.29;58.86
78299;BME280;67556;55.656;12.590;2023-05-10T04:44:31;101298.91;;;10.35;58.02
78299;BME280;67556;55.656;12.590;2023-05-10T04:46:58;101311.66;;;10.42;57.95
78299;BME280;67556;55.656;12.590;2023-05-10T04:49:26;101302.13;;;10.47;57.29
78299;BME280;67556;55.656;12.590;2023-05-10T04:51:52;101301.25;;;10.48;57.74
78299;BME280;67556;55.656;12.590;2023-05-10T04:54:25;101313.66;;;10.47;57.24
78299;BME280;67556;55.656;12.590;2023-05-10T04:57:12;101303.91;;;10.48;57.57
78299;BME280;67556;55.656;12.590;2023-05-10T04:59:40;101303.34;;;10.55;57.83
78299;BME280;67556;55.656;12.590;2023-05-10T05:02:26;101296.13;;;10.53;56.88
78299;BME280;67556;55.656;12.590;2023-05-10T05:04:52;101309.72;;;10.59;57.54
78299;BME280;67556;55.656;12.590;2023-05-10T05:07:31;101310.78;;;10.62;56.95
78299;BME280;67556;55.656;12.590;2023-05-10T05:09:57;101308.94;;;10.61;57.48
78299;BME280;67556;55.656;12.590;2023-05-10T05:12:42;101310.88;;;10.65;57.48
78299;BME280;67556;55.656;12.590;2023-05-10T05:15:27;101310.88;;;10.65;57.62
78299;BME280;67556;55.656;12.590;2023-05-10T05:17:54;101312.84;;;10.69;56.74
78299;BME280;67556;55.656;12.590;2023-05-10T05:20:21;101317.25;;;10.69;56.81
78299;BME280;67556;55.656;12.590;2023-05-10T05:22:48;101303.31;;;10.74;56.84
78299;BME280;67556;55.656;12.590;2023-05-10T05:25:22;101313.13;;;10.76;56.31
78299;BME280;67556;55.656;12.590;2023-05-10T05:27:50;101319.41;;;10.78;56.98
78299;BME280;67556;55.656;12.590;2023-05-10T05:30:23;101324.03;;;10.82;57.13
78299;BME280;67556;55.656;12.590;2023-05-10T05:32:49;101310.63;;;10.80;56.56
78299;BME280;67556;55.656;12.590;2023-05-10T05:35:16;101318.69;;;10.82;57.06
78299;BME280;67556;55.656;12.590;2023-05-10T05:37:56;101309.97;;;10.86;56.87
78299;BME280;67556;55.656;12.590;2023-05-10T05:40:25;101308.22;;;10.86;56.55
78299;BME280;67556;55.656;12.590;2023-05-10T05:43:07;101315.63;;;10.93;56.22
78299;BME280;67556;55.656;12.590;2023-05-10T05:45:36;101314.88;;;10.96;56.23
78299;BME280;67556;55.656;12.590;2023-05-10T05:48:03;101324.81;;;11.00;55.94
78299;BME280;67556;55.656;12.590;2023-05-10T05:50:35;101318.63;;;11.01;55.88
78299;BME280;67556;55.656;12.590;2023-05-10T05:53:02;101319.66;;;11.05;56.00
78299;BME280;67556;55.656;12.590;2023-05-10T05:55:51;101320.03;;;11.14;55.86
78299;BME280;67556;55.656;12.590;2023-05-10T05:58:20;101326.88;;;11.07;55.38
78299;BME280;67556;55.656;12.590;2023-05-10T06:01:00;101320.91;;;11.13;55.28
78299;BME280;67556;55.656;12.590;2023-05-10T06:03:26;101327.91;;;11.11;55.64
78299;BME280;67556;55.656;12.590;2023-05-10T06:05:59;101308.47;;;11.13;55.15
78299;BME280;67556;55.656;12.590;2023-05-10T06:08:25;101318.28;;;11.14;55.35
78299;BME280;67556;55.656;12.590;2023-05-10T06:10:57;101321.91;;;11.16;55.00
78299;BME280;67556;55.656;12.590;2023-05-10T06:13:26;101317.56;;;11.18;55.50
78299;BME280;67556;55.656;12.590;2023-05-10T06:15:57;101320.38;;;11.21;54.92
78299;BME280;67556;55.656;12.590;2023-05-10T06:18:23;101323.06;;;11.23;55.33
78299;BME280;67556;55.656;12.590;2023-05-10T06:20:50;101313.44;;;11.27;54.46
78299;BME280;67556;55.656;12.590;2023-05-10T06:23:35;101310.97;;;11.31;54.70
78299;BME280;67556;55.656;12.590;2023-05-10T06:26:01;101304.91;;;11.35;54.28
78299;BME280;67556;55.656;12.590;2023-05-10T06:28:39;101313.03;;;11.38;54.25
78299;BME280;67556;55.656;12.590;2023-05-10T06:31:12;101314.84;;;11.39;54.07
78299;BME280;67556;55.656;12.590;2023-05-10T06:33:39;101307.97;;;11.46;54.20
78299;BME280;67556;55.656;12.590;2023-05-10T06:36:24;101320.56;;;11.48;53.92
78299;BME280;67556;55.656;12.590;2023-05-10T06:38:53;101318.75;;;11.47;53.54
78299;BME280;67556;55.656;12.590;2023-05-10T06:41:20;101317.16;;;11.53;54.04
78299;BME280;67556;55.656;12.590;2023-05-10T06:44:09;101314.53;;;11.54;53.86
78299;BME280;67556;55.656;12.590;2023-05-10T06:46:42;101321.94;;;11.61;53.96
78299;BME280;67556;55.656;12.590;2023-05-10T06:49:09;101315.88;;;11.65;53.63
78299;BME280;67556;55.656;12.590;2023-05-10T06:51:57;101302.78;;;11.71;53.36
78299;BME280;67556;55.656;12.590;2023-05-10T06:54:24;101311.75;;;11.73;53.05
78299;BME280;67556;55.656;12.590;2023-05-10T06:57:08;101321.88;;;11.82;52.51
78299;BME280;67556;55.656;12.590;2023-05-10T06:59:45;101317.63;;;11.87;52.34
78299;BME280;67556;55.656;12.590;2023-05-10T07:02:12;101316.84;;;11.90;52.30
78299;BME280;67556;55.656;12.590;2023-05-10T07:04:58;101320.47;;;11.92;52.07
78299;BME280;67556;55.656;12.590;2023-05-10T07:07:26;101305.44;;;11.94;51.78
78299;BME280;67556;55.656;12.590;2023-05-10T07:09:53;101312.47;;;11.92;52.10
78299;BME280;67556;55.656;12.590;2023-05-10T07:12:22;101308.84;;;11.90;51.83
78299;BME280;67556;55.656;12.590;2023-05-10T07:14:56;101321.38;;;11.92;52.04
78299;BME280;67556;55.656;12.590;2023-05-10T07:17:22;101307.25;;;11.95;51.94
78299;BME280;67556;55.656;12.590;2023-05-10T07:19:52;101312.59;;;11.95;51.95
78299;BME280;67556;55.656;12.590;2023-05-10T07:22:19;101299.25;;;11.95;51.65
78299;BME280;67556;55.656;12.590;2023-05-10T07:24:46;101312.63;;;11.96;51.17
78299;BME280;67556;55.656;12.590;2023-05-10T07:27:18;101307.50;;;12.01;51.71
78299;BME280;67556;55.656;12.590;2023-05-10T07:29:44;101312.19;;;12.08;51.55
78299;BME280;67556;55.656;12.590;2023-05-10T07:32:23;101309.53;;;12.08;51.35
78299;BME280;67556;55.656;12.590;2023-05-10T07:35:16;101315.13;;;12.14;51.35
78299;BME280;67556;55.656;12.590;2023-05-10T07:38:02;101318.13;;;12.23;50.52
78299;BME280;67556;55.656;12.590;2023-05-10T07:40:29;101323.41;;;12.22;51.17
78299;BME280;67556;55.656;12.590;2023-05-10T07:42:55;101318.31;;;12.30;50.83
78299;BME280;67556;55.656;12.590;2023-05-10T07:45:40;101273.13;;;12.10;50.90
78299;BME280;67556;55.656;12.590;2023-05-10T07:48:24;101310.44;;;12.33;50.80
78299;BME280;67556;55.656;12.590;2023-05-10T07:50:51;101323.25;;;12.43;50.84
78299;BME280;67556;55.656;12.590;2023-05-10T07:53:24;101302.97;;;12.48;51.04
78299;BME280;67556;55.656;12.590;2023-05-10T07:55:59;101318.94;;;12.46;50.86
78299;BME280;67556;55.656;12.590;2023-05-10T07:58:31;101309.34;;;12.52;51.47
78299;BME280;67556;55.656;12.590;2023-05-10T08:00:59;101250.28;;;12.18;49.95
78299;BME280;67556;55.656;12.590;2023-05-10T08:03:28;101313.97;;;12.57;50.45
78299;BME280;67556;55.656;12.590;2023-05-10T08:05:56;101320.50;;;12.65;51.13
78299;BME280;67556;55.656;12.590;2023-05-10T08:08:22;101315.16;;;12.65;50.53
78299;BME280;67556;55.656;12.590;2023-05-10T08:10:50;101312.69;;;12.71;50.30
78299;BME280;67556;55.656;12.590;2023-05-10T08:13:16;101317.41;;;12.79;50.50
78299;BME280;67556;55.656;12.590;2023-05-10T08:15:44;101319.63;;;12.92;50.38
78299;BME280;67556;55.656;12.590;2023-05-10T08:18:10;101310.75;;;12.93;49.76
78299;BME280;67556;55.656;12.590;2023-05-10T08:20:43;101317.72;;;12.88;49.95
78299;BME280;67556;55.656;12.590;2023-05-10T08:23:12;101317.97;;;12.95;49.69
78299;BME280;67556;55.656;12.590;2023-05-10T08:25:40;101320.94;;;13.05;49.64
78299;BME280;67556;55.656;12.590;2023-05-10T08:28:06;101313.03;;;13.08;49.58
78299;BME280;67556;55.656;12.590;2023-05-10T08:30:41;101323.09;;;13.15;49.58
78299;BME280;67556;55.656;12.590;2023-05-10T08:33:07;101325.91;;;13.19;49.89
78299;BME280;67556;55.656;12.590;2023-05-10T08:35:33;101324.63;;;13.34;50.04
78299;BME280;67556;55.656;12.590;2023-05-10T08:38:04;101320.38;;;13.40;49.83
78299;BME280;67556;55.656;12.590;2023-05-10T08:40:38;101319.66;;;13.46;49.97
78299;BME280;67556;55.656;12.590;2023-05-10T08:43:21;101324.50;;;13.58;48.63
78299;BME280;67556;55.656;12.590;2023-05-10T08:45:56;101318.78;;;13.76;48.03
78299;BME280;67556;55.656;12.590;2023-05-10T08:48:23;101311.31;;;13.94;47.90
78299;BME280;67556;55.656;12.590;2023-05-10T08:50:52;101319.97;;;13.85;47.81
78299;BME280;67556;55.656;12.590;2023-05-10T08:53:33;101319.41;;;13.95;47.98
78299;BME280;67556;55.656;12.590;2023-05-10T08:56:03;101320.53;;;14.04;48.04
78299;BME280;67556;55.656;12.590;2023-05-10T08:58:48;101316.13;;;14.06;47.41
78299;BME280;67556;55.656;12.590;2023-05-10T09:01:18;101326.56;;;14.28;47.18
78299;BME280;67556;55.656;12.590;2023-05-10T09:03:45;101324.91;;;14.32;46.43
78299;BME280;67556;55.656;12.590;2023-05-10T09:06:32;101323.53;;;14.46;46.78
78299;BME280;67556;55.656;12.590;2023-05-10T09:09:01;101307.59;;;14.51;45.94
78299;BME280;67556;55.656;12.590;2023-05-10T09:11:36;101319.78;;;14.41;46.36
78299;BME280;67556;55.656;12.590;2023-05-10T09:14:04;101324.75;;;14.57;46.79
78299;BME280;67556;55.656;12.590;2023-05-10T09:16:33;101316.09;;;14.67;45.19
78299;BME280;67556;55.656;12.590;2023-05-10T09:19:07;101314.53;;;14.76;45.44
78299;BME280;67556;55.656;12.590;2023-05-10T09:21:37;101311.13;;;14.83;44.96
78299;BME280;67556;55.656;12.590;2023-05-10T09:24:07;101314.00;;;14.90;44.70
78299;BME280;67556;55.656;12.590;2023-05-10T09:26:59;101322.25;;;14.98;44.96
78299;BME280;67556;55.656;12.590;2023-05-10T09:29:39;101324.28;;;15.08;44.80
78299;BME280;67556;55.656;12.590;2023-05-10T09:32:07;101316.53;;;15.19;43.79
78299;BME280;67556;55.656;12.590;2023-05-10T09:34:34;101315.91;;;15.31;43.35
78299;BME280;67556;55.656;12.590;2023-05-10T09:37:10;101319.47;;;15.30;43.65
78299;BME280;67556;55.656;12.590;2023-05-10T09:39:39;101312.44;;;15.35;43.01
78299;BME280;67556;55.656;12.590;2023-05-10T09:42:07;101303.72;;;15.45;42.33
78299;BME280;67556;55.656;12.590;2023-05-10T09:44:48;101313.72;;;15.51;43.05
78299;BME280;67556;55.656;12.590;2023-05-10T09:47:17;101316.34;;;15.49;42.75
78299;BME280;67556;55.656;12.590;2023-05-10T09:49:44;101316.63;;;15.61;42.77
78299;BME280;67556;55.656;12.590;2023-05-10T09:52:15;101316.06;;;15.75;43.30
78299;BME280;67556;55.656;12.590;2023-05-10T09:54:45;101320.72;;;15.83;42.69
78299;BME280;67556;55.656;12.590;2023-05-10T09:57:28;101314.44;;;15.81;42.33
78299;BME280;67556;55.656;12.590;2023-05-10T09:59:54;101318.81;;;15.78;42.17
78299;BME280;67556;55.656;12.590;2023-05-10T10:02:28;101317.13;;;15.83;42.63
78299;BME280;67556;55.656;12.590;2023-05-10T10:05:00;101307.56;;;15.95;42.33
78299;BME280;67556;55.656;12.590;2023-05-10T10:07:39;101323.69;;;15.95;41.76
78299;BME280;67556;55.656;12.590;2023-05-10T10:10:11;101318.22;;;15.91;42.43
78299;BME280;67556;55.656;12.590;2023-05-10T10:12:49;101322.59;;;15.86;41.82
78299;BME280;67556;55.656;12.590;2023-05-10T10:15:16;101312.06;;;15.96;41.71
78299;BME280;67556;55.656;12.590;2023-05-10T10:17:45;101309.59;;;16.07;41.98
78299;BME280;67556;55.656;12.590;2023-05-10T10:20:17;101323.78;;;16.00;41.30
78299;BME280;67556;55.656;12.590;2023-05-10T10:22:50;101316.16;;;16.21;41.83
78299;BME280;67556;55.656;12.590;2023-05-10T10:25:26;101308.53;;;16.43;41.85
78299;BME280;67556;55.656;12.590;2023-05-10T10:28:13;101304.75;;;16.33;41.01
78299;BME280;67556;55.656;12.590;2023-05-10T10:30:48;101308.81;;;16.11;41.22
78299;BME280;67556;55.656;12.590;2023-05-10T10:33:33;101310.16;;;15.91;42.01
78299;BME280;67556;55.656;12.590;2023-05-10T10:36:05;101309.25;;;15.90;41.61
78299;BME280;67556;55.656;12.590;2023-05-10T10:38:57;101311.97;;;15.92;42.11
78299;BME280;67556;55.656;12.590;2023-05-10T10:41:33;101321.97;;;15.99;41.92
78299;BME280;67556;55.656;12.590;2023-05-10T10:44:25;101322.69;;;15.90;41.92
78299;BME280;67556;55.656;12.590;2023-05-10T10:46:59;101317.28;;;15.89;42.11
78299;BME280;67556;55.656;12.590;2023-05-10T10:49:49;101325.53;;;15.98;41.55
78299;BME280;67556;55.656;12.590;2023-05-10T10:52:24;101319.97;;;15.89;41.52
78299;BME280;67556;55.656;12.590;2023-05-10T10:54:58;101331.66;;;15.91;42.03
78299;BME280;67556;55.656;12.590;2023-05-10T10:57:27;101321.16;;;16.03;42.21
78299;BME280;67556;55.656;12.590;2023-05-10T11:00:24;101325.00;;;16.14;40.97
78299;BME280;67556;55.656;12.590;2023-05-10T11:02:57;101321.44;;;16.15;41.10
78299;BME280;67556;55.656;12.590;2023-05-10T11:05:25;101319.63;;;16.14;42.06
78299;BME280;67556;55.656;12.590;2023-05-10T11:08:00;101325.03;;;16.16;41.62
78299;BME280;67556;55.656;12.590;2023-05-10T11:10:27;101315.91;;;16.09;41.54
78299;BME280;67556;55.656;12.590;2023-05-10T11:13:13;101308.72;;;16.08;42.27
78299;BME280;67556;55.656;12.590;2023-05-10T11:15:58;101309.81;;;16.18;41.76
78299;BME280;67556;55.656;12.590;2023-05-10T11:18:57;101303.69;;;16.24;41.50
78299;BME280;67556;55.656;12.590;2023-05-10T11:21:45;101292.78;;;16.17;41.90
78299;BME280;67556;55.656;12.590;2023-05-10T11:24:13;101307.59;;;16.39;42.20
78299;BME280;67556;55.656;12.590;2023-05-10T11:26:40;101309.66;;;16.54;41.42
78299;BME280;67556;55.656;12.590;2023-05-10T11:29:08;101300.09;;;16.70;40.94
78299;BME280;67556;55.656;12.590;2023-05-10T11:31:43;101297.59;;;16.79;41.51
78299;BME280;67556;55.656;12.590;2023-05-10T11:34:10;101310.34;;;16.91;41.15
78299;BME280;67556;55.656;12.590;2023-05-10T11:36:37;101303.34;;;17.01;41.05
78299;BME280;67556;55.656;12.590;2023-05-10T11:39:06;101312.38;;;17.04;40.45
78299;BME280;67556;55.656;12.590;2023-05-10T11:41:32;101304.44;;;17.12;40.64
78299;BME280;67556;55.656;12.590;2023-05-10T11:44:03;101303.69;;;17.20;40.13
78299;BME280;67556;55.656;12.590;2023-05-10T11:46:32;101296.28;;;17.07;40.30
78299;BME280;67556;55.656;12.590;2023-05-10T11:49:06;101303.63;;;17.19;39.75
78299;BME280;67556;55.656;12.590;2023-05-10T11:51:50;101303.47;;;17.08;39.63
78299;BME280;67556;55.656;12.590;2023-05-10T11:54:18;101306.91;;;16.98;40.16
78299;BME280;67556;55.656;12.590;2023-05-10T11:56:49;101299.81;;;17.03;39.98
78299;BME280;67556;55.656;12.590;2023-05-10T11:59:16;101293.88;;;17.27;39.76
78299;BME280;67556;55.656;12.590;2023-05-10T12:01:43;101304.69;;;17.29;38.60
78299;BME280;67556;55.656;12.590;2023-05-10T12:04:10;101292.28;;;17.38;38.42
78299;BME280;67556;55.656;12.590;2023-05-10T12:06:39;101289.72;;;17.46;38.02
78299;BME280;67556;55.656;12.590;2023-05-10T12:09:07;101289.66;;;17.43;37.46
78299;BME280;67556;55.656;12.590;2023-05-10T12:11:37;101300.38;;;17.40;37.96
78299;BME280;67556;55.656;12.590;2023-05-10T12:14:05;101305.66;;;17.32;38.00
78299;BME280;67556;55.656;12.590;2023-05-10T12:16:32;101306.56;;;17.33;38.29
78299;BME280;67556;55.656;12.590;2023-05-10T12:19:11;101291.63;;;17.53;38.29
78299;BME280;67556;55.656;12.590;2023-05-10T12:21:37;101288.09;;;17.60;37.33
78299;BME280;67556;55.656;12.590;2023-05-10T12:24:14;101302.59;;;17.68;37.83
78299;BME280;67556;55.656;12.590;2023-05-10T12:26:43;101286.44;;;17.68;37.52
78299;BME280;67556;55.656;12.590;2023-05-10T12:29:21;101290.91;;;17.69;37.59
78299;BME280;67556;55.656;12.590;2023-05-10T12:32:00;101284.69;;;17.70;37.29
78299;BME280;67556;55.656;12.590;2023-05-10T12:34:36;101279.28;;;17.70;37.27
78299;BME280;67556;55.656;12.590;2023-05-10T12:37:28;101296.44;;;17.76;36.70
78299;BME280;67556;55.656;12.590;2023-05-10T12:40:19;101284.91;;;17.86;37.15
78299;BME280;67556;55.656;12.590;2023-05-10T12:43:05;101290.56;;;18.06;37.14
78299;BME280;67556;55.656;12.590;2023-05-10T12:45:33;101281.63;;;18.10;36.46
78299;BME280;67556;55.656;12.590;2023-05-10T12:48:09;101297.75;;;18.07;36.61
78299;BME280;67556;55.656;12.590;2023-05-10T12:50:40;101291.50;;;18.11;37.26
78299;BME280;67556;55.656;12.590;2023-05-10T12:53:21;101288.19;;;18.35;35.97
78299;BME280;67556;55.656;12.590;2023-05-10T12:55:53;101292.75;;;18.39;35.74
78299;BME280;67556;55.656;12.590;2023-05-10T12:58:38;101289.09;;;18.37;35.72
78299;BME280;67556;55.656;12.590;2023-05-10T13:01:05;101286.47;;;18.41;36.06
78299;BME280;67556;55.656;12.590;2023-05-10T13:03:32;101283.78;;;18.41;35.71
78299;BME280;67556;55.656;12.590;2023-05-10T13:06:23;101295.47;;;18.43;35.63
78299;BME280;67556;55.656;12.590;2023-05-10T13:08:50;101292.91;;;18.56;35.00
78299;BME280;67556;55.656;12.590;2023-05-10T13:11:35;101274.88;;;18.50;35.65